createdAt,value
2022-11-10T00:01:10.013Z,59.81
2022-11-10T00:03:38.986Z,60.62
2022-11-10T00:06:07.349Z,60.62
2022-11-10T00:08:33.977Z,61.29
2022-11-10T00:11:07.388Z,61.19
2022-11-10T00:13:56.214Z,61.64
2022-11-10T00:16:41.422Z,61.55
2022-11-10T00:19:07.876Z,61.37
2022-11-10T00:21:34.298Z,61.53
2022-11-10T00:24:00.741Z,61.63
2022-11-10T00:26:27.134Z,61.71
2022-11-10T00:28:55.075Z,61.69
2022-11-10T00:31:21.481Z,61.33
2022-11-10T00:33:47.950Z,60.53
2022-11-10T00:36:14.404Z,61.23
2022-11-10T00:38:40.805Z,61.20
2022-11-10T00:41:07.335Z,60.42
2022-11-10T00:43:34.403Z,60.67
2022-11-10T00:46:01.145Z,60.39
2022-11-10T00:48:27.609Z,60.49
2022-11-10T00:50:53.999Z,59.97
2022-11-10T00:53:20.821Z,59.69
2022-11-10T00:55:48.649Z,59.14
2022-11-10T00:58:15.177Z,59.25
2022-11-10T01:00:42.228Z,59.50
2022-11-10T01:03:14.049Z,59.64
2022-11-10T01:05:40.880Z,58.91
2022-11-10T01:08:07.646Z,59.23
2022-11-10T01:10:34.443Z,59.22
2022-11-10T01:13:00.884Z,58.93
2022-11-10T01:15:28.205Z,59.10
2022-11-10T01:17:56.316Z,59.63
2022-11-10T01:20:24.047Z,59.11
2022-11-10T01:22:50.566Z,59.38
2022-11-10T01:25:17.177Z,59.42
2022-11-10T01:27:43.634Z,59.54
2022-11-10T01:30:10.456Z,59.68
2022-11-10T01:32:36.928Z,59.86
2022-11-10T01:35:03.447Z,60.30
2022-11-10T01:37:29.981Z,60.15
2022-11-10T01:39:56.536Z,60.49
2022-11-10T01:42:44.088Z,60.16
2022-11-10T01:45:22.462Z,60.84
2022-11-10T01:47:55.297Z,60.76
2022-11-10T01:54:15.607Z,60.91
2022-11-10T01:56:50.572Z,60.81
2022-11-10T01:59:24.103Z,60.46
2022-11-10T02:01:53.651Z,60.74
2022-11-10T02:04:21.234Z,61.06
2022-11-10T02:07:25.470Z,60.58
2022-11-10T02:09:53.661Z,60.65
2022-11-10T02:12:36.975Z,60.70
2022-11-10T02:15:10.535Z,60.39
2022-11-10T02:17:37.253Z,61.18
2022-11-10T02:20:07.969Z,60.62
2022-11-10T02:22:34.383Z,60.17
2022-11-10T02:25:00.925Z,59.91
2022-11-10T02:27:27.571Z,59.89
2022-11-10T02:29:54.033Z,60.12
2022-11-10T02:32:20.432Z,59.80
2022-11-10T02:34:46.857Z,59.96
2022-11-10T02:37:13.283Z,59.30
2022-11-10T02:39:39.708Z,59.76
2022-11-10T02:42:10.356Z,59.40
2022-11-10T02:44:40.458Z,59.25
2022-11-10T02:47:07.473Z,59.38
2022-11-10T02:49:33.969Z,58.94
2022-11-10T02:52:00.443Z,59.49
2022-11-10T02:54:26.858Z,59.48
2022-11-10T02:56:53.303Z,59.43
2022-11-10T02:59:19.938Z,59.22
2022-11-10T03:01:46.395Z,59.16
2022-11-10T03:04:13.053Z,58.88
2022-11-10T03:06:39.526Z,59.73
2022-11-10T03:09:06.016Z,58.77
2022-11-10T03:11:32.701Z,58.96
2022-11-10T03:14:01.829Z,58.83
2022-11-10T03:16:29.233Z,59.40
2022-11-10T03:18:55.751Z,58.47
2022-11-10T03:21:22.298Z,58.68
2022-11-10T03:23:48.729Z,59.31
2022-11-10T03:26:15.158Z,58.83
2022-11-10T03:28:41.573Z,59.40
2022-11-10T03:31:07.984Z,59.11
2022-11-10T03:33:35.508Z,59.08
2022-11-10T03:36:02.042Z,58.96
2022-11-10T03:38:28.417Z,59.21
2022-11-10T03:41:18.335Z,59.27
2022-11-10T03:43:41.237Z,59.08
2022-11-10T03:46:08.379Z,59.11
2022-11-10T03:48:34.936Z,59.68
2022-11-10T03:51:01.470Z,59.95
2022-11-10T03:53:27.861Z,59.84
2022-11-10T03:55:54.274Z,59.88
2022-11-10T03:58:20.708Z,59.89
2022-11-10T04:00:47.659Z,59.62
2022-11-10T04:03:14.181Z,60.47
2022-11-10T04:05:59.416Z,60.30
2022-11-10T04:08:44.360Z,60.21
2022-11-10T04:11:10.882Z,60.47
2022-11-10T04:13:55.980Z,60.78
2022-11-10T04:16:22.419Z,60.57
2022-11-10T04:18:48.858Z,61.05
2022-11-10T04:21:15.383Z,60.89
2022-11-10T04:23:41.799Z,60.60
2022-11-10T04:26:28.573Z,60.55
2022-11-10T04:28:57.583Z,60.62
2022-11-10T04:31:25.330Z,60.79
2022-11-10T04:33:52.194Z,60.79
2022-11-10T04:36:21.422Z,60.77
2022-11-10T04:38:48.155Z,61.78
2022-11-10T04:41:15.255Z,61.46
2022-11-10T04:43:42.537Z,61.56
2022-11-10T04:46:16.888Z,61.25
2022-11-10T04:48:43.385Z,61.12
2022-11-10T04:51:10.147Z,61.57
2022-11-10T04:53:36.625Z,61.25
2022-11-10T04:56:03.297Z,61.44
2022-11-10T04:58:29.836Z,61.81
2022-11-10T05:00:56.359Z,61.85
2022-11-10T05:03:23.288Z,62.09
2022-11-10T05:05:49.884Z,61.86
2022-11-10T05:08:16.392Z,62.17
2022-11-10T05:10:43.531Z,62.87
2022-11-10T05:13:10.360Z,62.25
2022-11-10T05:15:36.890Z,61.94
2022-11-10T05:18:03.318Z,62.23
2022-11-10T05:20:29.709Z,61.99
2022-11-10T05:23:14.573Z,62.42
2022-11-10T05:25:42.287Z,62.35
2022-11-10T05:28:10.784Z,62.38
2022-11-10T05:30:38.489Z,62.15
2022-11-10T05:33:05.795Z,62.20
2022-11-10T05:35:32.880Z,62.42
2022-11-10T05:37:59.327Z,62.53
2022-11-10T05:40:25.782Z,62.61
2022-11-10T05:42:52.971Z,62.94
2022-11-10T05:45:26.122Z,63.33
2022-11-10T05:47:52.949Z,63.13
2022-11-10T05:50:20.551Z,63.13
2022-11-10T05:52:50.571Z,63.43
2022-11-10T05:55:19.329Z,64.03
2022-11-10T05:57:48.125Z,64.00
2022-11-10T06:00:21.744Z,63.51
2022-11-10T06:03:18.358Z,63.48
2022-11-10T06:05:45.625Z,63.59
2022-11-10T06:08:12.361Z,63.50
2022-11-10T06:10:39.487Z,63.54
2022-11-10T06:13:06.584Z,63.71
2022-11-10T06:15:33.263Z,63.43
2022-11-10T06:17:59.752Z,64.07
2022-11-10T06:20:26.718Z,64.22
2022-11-10T06:23:00.936Z,63.45
2022-11-10T06:25:31.374Z,63.33
2022-11-10T06:27:58.129Z,64.13
2022-11-10T06:30:24.789Z,63.89
2022-11-10T06:32:51.553Z,63.70
2022-11-10T06:35:18.713Z,63.82
2022-11-10T06:37:45.197Z,64.22
2022-11-10T06:40:14.079Z,64.07
2022-11-10T06:42:40.672Z,63.75
2022-11-10T06:45:07.519Z,64.21
2022-11-10T06:47:34.176Z,64.12
2022-11-10T06:50:00.635Z,64.58
2022-11-10T06:52:27.079Z,64.11
2022-11-10T06:54:53.502Z,63.98
2022-11-10T06:57:20.022Z,64.50
2022-11-10T06:59:46.447Z,64.63
2022-11-10T07:02:16.396Z,64.63
2022-11-10T07:04:42.855Z,64.44
2022-11-10T07:07:10.430Z,64.96
2022-11-10T07:09:37.760Z,64.45
2022-11-10T07:12:04.986Z,63.62
2022-11-10T07:14:31.491Z,63.79
2022-11-10T07:16:57.909Z,64.25
2022-11-10T07:19:24.312Z,63.15
2022-11-10T07:21:50.729Z,63.15
2022-11-10T07:24:17.241Z,63.40
2022-11-10T07:26:43.628Z,62.87
2022-11-10T07:29:10.025Z,63.09
2022-11-10T07:31:36.420Z,62.43
2022-11-10T07:34:02.850Z,62.49
2022-11-10T07:36:29.522Z,62.51
2022-11-10T07:38:56.091Z,61.80
2022-11-10T07:41:22.691Z,62.09
2022-11-10T07:43:49.223Z,62.25
2022-11-10T07:46:15.651Z,62.57
2022-11-10T07:48:42.027Z,62.92
2022-11-10T07:51:08.546Z,62.97
2022-11-10T07:53:34.979Z,62.22
2022-11-10T07:56:01.417Z,62.46
2022-11-10T07:58:29.566Z,62.51
2022-11-10T08:00:56.023Z,62.68
2022-11-10T08:03:22.768Z,62.60
2022-11-10T08:05:49.989Z,61.65
2022-11-10T08:08:16.415Z,62.38
2022-11-10T08:10:43.334Z,62.16
2022-11-10T08:13:11.702Z,61.92
2022-11-10T08:15:38.994Z,61.48
2022-11-10T08:18:20.442Z,61.78
2022-11-10T08:20:47.487Z,61.26
2022-11-10T08:23:14.544Z,61.38
2022-11-10T08:25:41.545Z,60.53
2022-11-10T08:28:09.868Z,60.68
2022-11-10T08:30:38.447Z,61.14
2022-11-10T08:33:06.472Z,60.63
2022-11-10T08:35:37.778Z,59.69
2022-11-10T08:38:13.750Z,58.95
2022-11-10T08:40:41.058Z,58.83
2022-11-10T08:43:08.703Z,59.64
2022-11-10T08:45:36.426Z,58.36
2022-11-10T08:48:05.712Z,58.33
2022-11-10T08:50:32.714Z,58.07
2022-11-10T08:53:04.029Z,57.78
2022-11-10T08:55:30.613Z,58.53
2022-11-10T08:58:01.724Z,58.51
2022-11-10T09:00:28.761Z,58.70
2022-11-10T09:02:56.479Z,58.46
2022-11-10T09:05:23.642Z,58.25
2022-11-10T09:07:50.552Z,57.23
2022-11-10T09:10:17.130Z,57.36
2022-11-10T09:12:43.680Z,56.82
2022-11-10T09:15:11.524Z,56.42
2022-11-10T09:17:39.475Z,55.90
2022-11-10T09:20:09.032Z,54.22
2022-11-10T09:22:36.851Z,53.72
2022-11-10T09:25:04.365Z,55.11
2022-11-10T09:27:31.079Z,53.76
2022-11-10T09:29:57.456Z,53.34
2022-11-10T09:32:23.964Z,53.42
2022-11-10T09:34:52.977Z,52.46
2022-11-10T09:37:19.663Z,52.14
2022-11-10T09:39:46.132Z,52.58
2022-11-10T09:42:36.584Z,50.56
2022-11-10T09:45:15.223Z,51.02
2022-11-10T09:47:57.151Z,48.42
2022-11-10T09:50:35.138Z,47.91
2022-11-10T09:53:02.673Z,46.92
2022-11-10T09:55:43.534Z,47.15
2022-11-10T09:58:14.027Z,47.91
2022-11-10T10:00:46.539Z,47.94
2022-11-10T10:03:19.713Z,47.91
2022-11-10T10:06:03.470Z,47.71
2022-11-10T10:08:49.902Z,48.46
2022-11-10T10:11:43.697Z,48.12
2022-11-10T10:14:24.740Z,49.26
2022-11-10T10:17:03.041Z,49.18
2022-11-10T10:19:56.693Z,49.15
2022-11-10T10:22:54.051Z,49.68
2022-11-10T10:25:24.350Z,48.09
2022-11-10T10:28:16.780Z,46.99
2022-11-10T10:30:43.833Z,47.95
2022-11-10T10:33:15.346Z,48.76
2022-11-10T10:35:43.378Z,48.82
2022-11-10T10:38:38.040Z,48.38
2022-11-10T10:41:24.180Z,47.21
2022-11-10T10:43:54.518Z,47.88
2022-11-10T10:46:28.392Z,48.60
2022-11-10T10:49:27.409Z,50.63
2022-11-10T10:52:16.256Z,51.02
2022-11-10T10:54:43.575Z,52.63
2022-11-10T10:57:29.304Z,53.09
2022-11-10T11:00:31.099Z,52.76
2022-11-10T11:03:26.157Z,52.06
2022-11-10T11:06:03.395Z,51.61
2022-11-10T11:08:29.855Z,50.64
2022-11-10T11:10:56.399Z,49.54
2022-11-10T11:13:27.603Z,47.46
2022-11-10T11:16:12.851Z,46.64
2022-11-10T11:18:40.291Z,46.22
2022-11-10T11:21:42.761Z,43.94
2022-11-10T11:24:09.122Z,43.07
2022-11-10T11:26:46.392Z,43.19
2022-11-10T11:29:18.645Z,44.29
2022-11-10T11:31:57.637Z,45.86
2022-11-10T11:34:41.717Z,44.19
2022-11-10T11:37:11.989Z,42.94
2022-11-10T11:39:56.873Z,42.88
2022-11-10T11:42:33.206Z,43.00
2022-11-10T11:45:26.353Z,43.37
2022-11-10T11:48:19.800Z,43.84
2022-11-10T11:50:55.297Z,42.96
2022-11-10T11:53:27.760Z,45.95
2022-11-10T11:55:58.742Z,47.71
2022-11-10T11:58:45.038Z,48.46
2022-11-10T12:01:40.851Z,46.29
2022-11-10T12:04:25.135Z,47.18
2022-11-10T12:07:22.786Z,48.51
2022-11-10T12:09:54.780Z,48.89
2022-11-10T12:12:30.327Z,49.74
2022-11-10T12:15:40.415Z,51.08
2022-11-10T12:18:33.628Z,51.34
2022-11-10T12:21:37.745Z,50.70
2022-11-10T12:24:12.981Z,49.97
2022-11-10T12:26:53.851Z,49.71
2022-11-10T12:29:43.832Z,51.07
2022-11-10T12:32:17.531Z,51.12
2022-11-10T12:34:49.743Z,51.14
2022-11-10T12:37:27.809Z,51.68
2022-11-10T12:40:01.546Z,51.49
2022-11-10T12:42:29.693Z,51.45
2022-11-10T12:44:59.591Z,50.44
2022-11-10T12:47:30.472Z,50.79
2022-11-10T12:50:09.339Z,50.43
2022-11-10T12:52:50.476Z,50.48
2022-11-10T12:55:16.987Z,50.40
2022-11-10T12:57:43.975Z,50.23
2022-11-10T13:00:26.694Z,49.54
2022-11-10T13:02:55.625Z,49.54
2022-11-10T13:05:34.128Z,49.98
2022-11-10T13:08:17.638Z,50.15
2022-11-10T13:10:56.469Z,50.26
2022-11-10T13:13:24.114Z,50.92
2022-11-10T13:15:56.597Z,51.00
2022-11-10T13:18:23.283Z,51.02
2022-11-10T13:20:56.984Z,51.45
2022-11-10T13:23:24.671Z,52.28
2022-11-10T13:26:00.760Z,51.55
2022-11-10T13:28:45.961Z,51.68
2022-11-10T13:31:27.520Z,51.52
2022-11-10T13:34:02.987Z,51.48
2022-11-10T13:36:47.798Z,51.25
2022-11-10T13:39:20.277Z,51.27
2022-11-10T13:41:51.148Z,51.65
2022-11-10T13:44:35.708Z,51.43
2022-11-10T13:47:08.409Z,50.61
2022-11-10T13:49:50.011Z,51.92
2022-11-10T13:52:47.038Z,51.76
2022-11-10T13:55:39.150Z,51.87
2022-11-10T13:58:11.320Z,51.74
2022-11-10T14:00:38.224Z,52.05
2022-11-10T14:03:07.290Z,51.97
2022-11-10T14:05:41.418Z,51.18
2022-11-10T14:08:16.733Z,51.84
2022-11-10T14:11:02.286Z,52.41
2022-11-10T14:13:41.329Z,52.19
2022-11-10T14:16:21.204Z,52.33
2022-11-10T14:19:15.955Z,51.83
2022-11-10T14:21:48.499Z,52.44
2022-11-10T14:24:42.802Z,52.64
2022-11-10T14:27:16.003Z,52.94
2022-11-10T14:29:43.025Z,52.66
2022-11-10T14:32:20.187Z,52.77
2022-11-10T14:34:51.753Z,52.91
2022-11-10T14:37:23.260Z,52.88
2022-11-10T14:40:01.229Z,53.15
2022-11-10T14:42:32.530Z,52.98
2022-11-10T14:45:16.756Z,52.95
2022-11-10T14:47:43.199Z,53.13
2022-11-10T14:50:16.063Z,53.25
2022-11-10T14:52:45.231Z,53.59
2022-11-10T14:55:24.924Z,53.21
2022-11-10T14:58:03.753Z,53.73
2022-11-10T15:00:35.576Z,53.60
2022-11-10T15:03:03.445Z,53.40
2022-11-10T15:05:30.709Z,53.36
2022-11-10T15:07:58.615Z,53.54
2022-11-10T15:10:44.081Z,53.60
2022-11-10T15:13:13.250Z,53.52
2022-11-10T15:15:41.117Z,53.69
2022-11-10T15:18:24.719Z,54.27
2022-11-10T15:21:06.344Z,54.28
2022-11-10T15:23:36.491Z,53.87
2022-11-10T15:26:04.449Z,54.32
2022-11-10T15:28:33.595Z,54.16
2022-11-10T15:31:10.683Z,54.43
2022-11-10T15:33:39.182Z,54.62
2022-11-10T15:36:32.029Z,54.00
2022-11-10T15:39:10.706Z,54.67
2022-11-10T15:41:47.605Z,54.30
2022-11-10T15:44:40.277Z,54.89
2022-11-10T15:47:11.619Z,54.86
2022-11-10T15:49:40.380Z,54.83
2022-11-10T15:52:14.821Z,54.87
2022-11-10T15:54:41.976Z,55.07
2022-11-10T15:57:13.984Z,54.79
2022-11-10T15:59:41.490Z,55.10
2022-11-10T16:02:24.691Z,55.49
2022-11-10T16:04:59.559Z,55.15
2022-11-10T16:07:26.595Z,55.47
2022-11-10T16:09:52.980Z,55.52
2022-11-10T16:12:21.344Z,55.76
2022-11-10T16:14:50.942Z,55.88
2022-11-10T16:17:17.749Z,55.77
2022-11-10T16:19:45.746Z,55.70
2022-11-10T16:22:12.745Z,55.83
2022-11-10T16:24:40.000Z,55.75
2022-11-10T16:27:11.256Z,56.22
2022-11-10T16:29:38.057Z,55.77
2022-11-10T16:32:05.599Z,56.26
2022-11-10T16:34:32.075Z,56.05
2022-11-10T16:36:58.722Z,56.26
2022-11-10T16:39:25.250Z,55.78
2022-11-10T16:41:51.796Z,56.13
2022-11-10T16:44:25.101Z,57.05
2022-11-10T16:46:55.897Z,57.14
2022-11-10T16:49:34.146Z,57.23
2022-11-10T16:52:12.063Z,57.52
2022-11-10T16:54:38.556Z,57.58
2022-11-10T16:57:13.911Z,57.48
2022-11-10T16:59:40.480Z,57.46
2022-11-10T17:02:27.943Z,57.70
2022-11-10T17:04:55.245Z,57.97
2022-11-10T17:07:26.642Z,57.77
2022-11-10T17:09:53.638Z,57.79
2022-11-10T17:12:20.096Z,57.42
2022-11-10T17:14:46.764Z,57.61
2022-11-10T17:17:16.839Z,57.76
2022-11-10T17:19:43.304Z,58.36
2022-11-10T17:22:11.127Z,57.72
2022-11-10T17:24:37.594Z,57.50
2022-11-10T17:27:04.033Z,57.95
2022-11-10T17:29:30.468Z,57.87
2022-11-10T17:31:56.931Z,57.86
2022-11-10T17:34:23.473Z,57.43
2022-11-10T17:36:51.187Z,57.81
2022-11-10T17:39:18.013Z,57.42
2022-11-10T17:41:44.781Z,57.54
2022-11-10T17:44:16.112Z,57.52
2022-11-10T17:46:43.173Z,57.25
2022-11-10T17:49:09.819Z,56.89
2022-11-10T17:51:36.902Z,57.40
2022-11-10T17:54:04.446Z,57.27
2022-11-10T17:56:31.758Z,56.96
2022-11-10T17:58:58.347Z,57.18
2022-11-10T18:01:24.920Z,57.10
2022-11-10T18:03:51.559Z,57.20
2022-11-10T18:06:20.197Z,56.83
2022-11-10T18:08:47.002Z,57.29
2022-11-10T18:11:16.362Z,57.04
2022-11-10T18:13:43.858Z,56.34
2022-11-10T18:16:15.377Z,56.69
2022-11-10T18:18:41.834Z,56.70
2022-11-10T18:21:09.416Z,56.95
2022-11-10T18:23:35.917Z,57.15
2022-11-10T18:26:04.362Z,57.36
2022-11-10T18:28:30.836Z,57.28
2022-11-10T18:30:57.238Z,57.86
2022-11-10T18:33:23.955Z,57.72
2022-11-10T18:35:50.652Z,57.48
2022-11-10T18:38:17.096Z,57.30
2022-11-10T18:40:43.469Z,57.51
2022-11-10T18:43:09.906Z,57.10
2022-11-10T18:45:36.811Z,57.33
2022-11-10T18:48:03.995Z,57.55
2022-11-10T18:50:30.780Z,57.14
2022-11-10T18:52:57.755Z,57.23
2022-11-10T18:55:24.426Z,57.64
2022-11-10T18:57:51.104Z,57.73
2022-11-10T19:00:17.720Z,57.54
2022-11-10T19:02:44.242Z,57.24
2022-11-10T19:05:10.762Z,57.35
2022-11-10T19:07:37.199Z,57.54
2022-11-10T19:10:04.121Z,57.64
2022-11-10T19:12:32.169Z,58.61
2022-11-10T19:14:58.630Z,58.62
2022-11-10T19:17:25.038Z,58.58
2022-11-10T19:19:56.246Z,58.44
2022-11-10T19:22:23.128Z,57.93
2022-11-10T19:25:07.127Z,58.57
2022-11-10T19:27:35.201Z,58.11
2022-11-10T19:30:01.671Z,57.93
2022-11-10T19:32:29.435Z,58.01
2022-11-10T19:34:55.891Z,57.88
2022-11-10T19:37:22.341Z,58.33
2022-11-10T19:39:48.738Z,57.92
2022-11-10T19:42:15.282Z,58.15
2022-11-10T19:44:41.820Z,58.48
2022-11-10T19:47:08.400Z,58.41
2022-11-10T19:49:38.326Z,58.64
2022-11-10T19:52:04.852Z,58.80
2022-11-10T19:54:31.316Z,58.88
2022-11-10T19:56:57.807Z,58.15
2022-11-10T19:59:25.299Z,58.21
2022-11-10T20:01:51.818Z,58.52
2022-11-10T20:04:18.604Z,59.49
2022-11-10T20:06:45.161Z,59.36
2022-11-10T20:09:11.874Z,59.78
2022-11-10T20:11:38.448Z,60.01
2022-11-10T20:14:06.825Z,59.97
2022-11-10T20:16:33.390Z,59.92
2022-11-10T20:18:59.876Z,60.15
2022-11-10T20:21:26.358Z,59.59
2022-11-10T20:23:56.745Z,59.68
2022-11-10T20:26:24.382Z,59.55
2022-11-10T20:28:51.295Z,59.58
2022-11-10T20:31:21.703Z,60.05
2022-11-10T20:33:48.958Z,59.99
2022-11-10T20:36:20.853Z,59.95
2022-11-10T20:38:48.763Z,59.65
2022-11-10T20:41:19.732Z,60.29
2022-11-10T20:43:46.783Z,59.89
2022-11-10T20:46:33.400Z,60.05
2022-11-10T20:49:02.830Z,59.98
2022-11-10T20:51:29.330Z,59.79
2022-11-10T20:53:56.920Z,59.69
2022-11-10T20:56:29.234Z,60.25
2022-11-10T20:58:56.523Z,59.76
2022-11-10T21:01:23.511Z,59.76
2022-11-10T21:03:50.235Z,59.96
2022-11-10T21:06:16.851Z,59.90
2022-11-10T21:08:43.359Z,60.77
2022-11-10T21:11:10.238Z,60.25
2022-11-10T21:13:37.422Z,59.85
2022-11-10T21:16:06.062Z,60.08
2022-11-10T21:18:35.334Z,59.98
2022-11-10T21:21:02.897Z,60.40
2022-11-10T21:23:29.417Z,60.28
2022-11-10T21:25:58.087Z,60.14
2022-11-10T21:28:25.320Z,59.80
2022-11-10T21:30:52.208Z,60.10
2022-11-10T21:33:18.877Z,60.34
2022-11-10T21:35:45.335Z,60.43
2022-11-10T21:38:13.187Z,61.20
2022-11-10T21:40:40.253Z,61.44
2022-11-10T21:43:06.709Z,61.20
2022-11-10T21:45:33.166Z,60.71
2022-11-10T21:48:02.505Z,61.10
2022-11-10T21:50:29.221Z,61.72
2022-11-10T21:52:55.632Z,62.30
2022-11-10T21:55:22.180Z,62.89
2022-11-10T21:57:48.613Z,62.48
2022-11-10T22:00:15.263Z,62.12
2022-11-10T22:02:41.669Z,62.35
2022-11-10T22:05:08.398Z,61.80
2022-11-10T22:07:34.806Z,62.60
2022-11-10T22:10:19.768Z,62.78
2022-11-10T22:13:04.755Z,62.38
2022-11-10T22:15:49.505Z,62.74
2022-11-10T22:18:37.250Z,63.10
2022-11-10T22:21:04.814Z,62.89
2022-11-10T22:23:49.848Z,62.68
2022-11-10T22:26:16.334Z,63.10
2022-11-10T22:28:42.875Z,63.10
2022-11-10T22:31:10.819Z,63.02
2022-11-10T22:33:40.332Z,63.07
2022-11-10T22:36:10.448Z,62.82
2022-11-10T22:38:39.314Z,63.57
2022-11-10T22:41:24.832Z,62.74
2022-11-10T22:44:06.498Z,63.10
2022-11-10T22:46:41.142Z,63.20
2022-11-10T22:49:10.141Z,63.11
2022-11-10T22:51:39.669Z,63.31
2022-11-10T22:54:10.074Z,63.49
2022-11-10T22:56:37.053Z,63.81
2022-11-10T22:59:04.247Z,64.00
2022-11-10T23:01:31.263Z,63.96
2022-11-10T23:03:58.453Z,64.29
2022-11-10T23:06:25.094Z,64.66
2022-11-10T23:08:52.151Z,65.02
2022-11-10T23:11:20.883Z,64.88
2022-11-10T23:13:47.893Z,64.67
2022-11-10T23:16:19.960Z,64.83
2022-11-10T23:18:49.551Z,64.80
2022-11-10T23:21:18.343Z,65.14
2022-11-10T23:23:46.025Z,65.04
2022-11-10T23:26:15.272Z,65.16
2022-11-10T23:28:42.739Z,65.03
2022-11-10T23:31:19.965Z,65.29
2022-11-10T23:33:48.370Z,65.52
2022-11-10T23:36:16.517Z,65.87
2022-11-10T23:38:43.074Z,65.84
2022-11-10T23:41:14.513Z,65.08
2022-11-10T23:43:41.727Z,65.72
2022-11-10T23:46:08.664Z,65.76
2022-11-10T23:48:36.329Z,65.49
2022-11-10T23:51:03.910Z,66.61
2022-11-10T23:53:30.395Z,65.86
2022-11-10T23:56:06.105Z,66.19
2022-11-10T23:58:32.955Z,66.35
